createdAt,value
2023-02-08T00:00:06.370Z,103725.25
2023-02-08T00:02:34.249Z,103562.47
2023-02-08T00:05:00.776Z,103686.28
2023-02-08T00:07:27.577Z,103700.22
2023-02-08T00:09:54.221Z,103689.47
2023-02-08T00:12:20.827Z,103599.03
2023-02-08T00:14:47.471Z,103689.06
2023-02-08T00:17:14.131Z,103684.38
2023-02-08T00:19:40.765Z,103616.91
2023-02-08T00:22:07.439Z,103688.44
2023-02-08T00:24:34.032Z,103721.78
2023-02-08T00:27:00.565Z,103616.94
2023-02-08T00:29:27.235Z,103595.16
2023-02-08T00:31:53.847Z,103725.72
2023-02-08T00:34:20.424Z,103698.97
2023-02-08T00:36:47.152Z,103697.47
2023-02-08T00:39:13.846Z,103687.81
2023-02-08T00:41:40.845Z,103636.56
2023-02-08T00:44:07.507Z,103666.63
2023-02-08T00:46:35.375Z,103655.09
2023-02-08T00:49:02.016Z,103717.81
2023-02-08T00:51:28.680Z,103677.66
2023-02-08T00:53:55.295Z,103700.81
2023-02-08T00:56:22.650Z,103607.28
2023-02-08T00:58:49.299Z,103675.81
2023-02-08T01:01:17.085Z,103655.16
2023-02-08T01:03:44.632Z,103706.44
2023-02-08T01:06:15.309Z,103675.09
2023-02-08T01:08:42.020Z,103576.69
2023-02-08T01:11:11.578Z,103661.44
2023-02-08T01:13:38.716Z,103683.75
2023-02-08T01:16:16.835Z,103685.19
2023-02-08T01:18:46.202Z,103594.03
2023-02-08T01:21:19.078Z,103551.31
2023-02-08T01:23:46.567Z,103678.94
2023-02-08T01:26:15.005Z,103680.34
2023-02-08T01:28:41.734Z,103580.81
2023-02-08T01:31:11.942Z,103576.50
2023-02-08T01:33:39.048Z,103667.84
2023-02-08T01:36:07.202Z,103666.31
2023-02-08T01:38:35.268Z,103686.31
2023-02-08T01:41:03.424Z,103664.13
2023-02-08T01:43:32.863Z,103663.53
2023-02-08T01:45:59.597Z,103672.56
2023-02-08T01:48:31.811Z,103664.09
2023-02-08T01:51:03.409Z,103701.66
2023-02-08T01:53:33.401Z,103662.88
2023-02-08T01:56:04.072Z,103697.66
2023-02-08T01:58:34.112Z,103567.34
2023-02-08T02:01:02.672Z,103662.19
2023-02-08T02:03:29.297Z,103656.19
2023-02-08T02:06:03.255Z,103695.41
2023-02-08T02:08:31.220Z,103674.13
2023-02-08T02:10:58.043Z,103692.00
2023-02-08T02:13:26.401Z,103648.91
2023-02-08T02:15:54.712Z,103637.19
2023-02-08T02:18:29.724Z,103643.06
2023-02-08T02:21:11.377Z,103697.16
2023-02-08T02:24:18.799Z,103690.53
2023-02-08T02:26:54.543Z,103663.91
2023-02-08T02:29:44.289Z,103676.50
2023-02-08T02:32:30.287Z,103503.78
2023-02-08T02:35:05.726Z,103689.13
2023-02-08T02:37:40.675Z,103680.53
2023-02-08T02:40:36.727Z,103676.84
2023-02-08T02:43:32.055Z,103565.47
2023-02-08T02:46:25.679Z,103665.72
2023-02-08T02:49:15.300Z,103520.47
2023-02-08T02:51:50.887Z,103680.75
2023-02-08T02:54:27.117Z,103578.59
2023-02-08T02:57:02.054Z,103657.56
2023-02-08T02:59:32.313Z,103600.47
2023-02-08T03:01:58.906Z,103562.31
2023-02-08T03:04:34.595Z,103668.81
2023-02-08T03:07:01.191Z,103551.56
2023-02-08T03:10:01.819Z,103663.91
2023-02-08T03:13:06.073Z,103668.25
2023-02-08T03:16:14.297Z,103672.91
2023-02-08T03:19:19.403Z,103680.63
2023-02-08T03:22:02.286Z,103635.59
2023-02-08T03:24:48.329Z,103646.28
2023-02-08T03:28:08.766Z,103671.06
2023-02-08T03:30:53.197Z,103618.50
2023-02-08T03:33:34.547Z,103538.22
2023-02-08T03:36:17.441Z,103638.00
2023-02-08T03:38:47.344Z,103630.69
2023-02-08T03:41:19.709Z,103635.47
2023-02-08T03:44:09.545Z,103658.69
2023-02-08T03:46:48.656Z,103638.66
2023-02-08T03:49:19.861Z,103618.53
2023-02-08T03:51:46.654Z,103655.31
2023-02-08T03:54:19.041Z,103603.03
2023-02-08T03:56:54.467Z,103629.78
2023-02-08T03:59:26.007Z,103569.22
2023-02-08T04:02:01.575Z,103616.56
2023-02-08T04:04:34.119Z,103617.63
2023-02-08T04:07:01.062Z,103667.88
2023-02-08T04:09:27.601Z,103617.16
2023-02-08T04:11:54.158Z,103603.13
2023-02-08T04:14:20.663Z,103633.09
2023-02-08T04:16:47.182Z,103542.69
2023-02-08T04:19:13.701Z,103650.59
2023-02-08T04:21:40.297Z,103648.78
2023-02-08T04:24:07.043Z,103633.09
2023-02-08T04:26:33.659Z,103636.47
2023-02-08T04:29:00.287Z,103637.41
2023-02-08T04:31:27.274Z,103625.69
2023-02-08T04:33:53.985Z,103478.25
2023-02-08T04:36:20.604Z,103628.16
2023-02-08T04:38:47.271Z,103645.81
2023-02-08T04:41:13.772Z,103661.19
2023-02-08T04:43:40.433Z,103635.50
2023-02-08T04:46:07.552Z,103659.63
2023-02-08T04:48:34.069Z,103674.72
2023-02-08T04:51:00.646Z,103644.09
2023-02-08T04:53:27.338Z,103642.22
2023-02-08T04:55:54.161Z,103637.47
2023-02-08T04:58:20.883Z,103647.56
2023-02-08T05:00:47.405Z,103626.16
2023-02-08T05:03:15.030Z,103670.03
2023-02-08T05:05:41.751Z,103623.09
2023-02-08T05:08:08.381Z,103612.03
2023-02-08T05:10:35.012Z,103637.56
2023-02-08T05:13:01.629Z,103684.91
2023-02-08T05:15:28.289Z,103604.50
2023-02-08T05:17:54.928Z,103632.81
2023-02-08T05:20:21.605Z,103547.63
2023-02-08T05:22:48.552Z,103631.72
2023-02-08T05:25:15.167Z,103634.69
2023-02-08T05:27:41.751Z,103570.47
2023-02-08T05:30:08.707Z,103670.72
2023-02-08T05:32:35.396Z,103631.19
2023-02-08T05:35:01.989Z,103591.81
2023-02-08T05:37:28.550Z,103618.44
2023-02-08T05:39:55.085Z,103622.44
2023-02-08T05:42:22.106Z,103546.53
2023-02-08T05:44:48.669Z,103630.91
2023-02-08T05:47:15.313Z,103523.97
2023-02-08T05:49:41.871Z,103531.50
2023-02-08T05:52:08.365Z,103607.09
2023-02-08T05:54:35.011Z,103654.91
2023-02-08T05:57:01.942Z,103573.00
2023-02-08T05:59:28.843Z,103611.56
2023-02-08T06:01:55.396Z,103654.44
2023-02-08T06:04:22.013Z,103636.31
2023-02-08T06:06:48.573Z,103532.09
2023-02-08T06:09:15.198Z,103612.94
2023-02-08T06:11:41.805Z,103639.69
2023-02-08T06:14:08.348Z,103625.22
2023-02-08T06:16:34.942Z,103549.75
2023-02-08T06:19:01.615Z,103616.63
2023-02-08T06:21:28.425Z,103598.50
2023-02-08T06:23:55.525Z,103516.66
2023-02-08T06:26:22.167Z,103610.75
2023-02-08T06:28:48.746Z,103603.94
2023-02-08T06:31:15.342Z,103527.69
2023-02-08T06:33:41.946Z,103646.22
2023-02-08T06:36:08.726Z,103659.56
2023-02-08T06:38:35.839Z,103621.13
2023-02-08T06:41:02.407Z,103626.97
2023-02-08T06:43:28.994Z,103632.91
2023-02-08T06:45:55.642Z,103638.28
2023-02-08T06:48:22.238Z,103589.69
2023-02-08T06:50:48.820Z,103617.19
2023-02-08T06:53:15.449Z,103532.41
2023-02-08T06:55:41.961Z,103611.13
2023-02-08T06:58:08.610Z,103620.78
2023-02-08T07:00:35.256Z,103608.94
2023-02-08T07:03:01.812Z,103635.13
2023-02-08T07:05:28.424Z,103650.63
2023-02-08T07:07:55.028Z,103511.91
2023-02-08T07:10:21.750Z,103510.38
2023-02-08T07:12:48.334Z,103615.69
2023-02-08T07:15:15.158Z,103542.13
2023-02-08T07:17:41.788Z,103551.28
2023-02-08T07:20:08.987Z,103545.22
2023-02-08T07:22:35.609Z,103616.88
2023-02-08T07:25:02.140Z,103631.22
2023-02-08T07:27:28.910Z,103614.00
2023-02-08T07:29:55.494Z,103608.94
2023-02-08T07:32:22.307Z,103619.63
2023-02-08T07:34:48.882Z,103613.81
2023-02-08T07:37:15.480Z,103562.19
2023-02-08T07:39:42.124Z,103612.66
2023-02-08T07:42:09.830Z,103517.13
2023-02-08T07:44:47.541Z,103606.19
2023-02-08T07:47:14.166Z,103627.09
2023-02-08T07:49:40.713Z,103640.72
2023-02-08T07:52:07.235Z,103570.50
2023-02-08T07:54:33.766Z,103614.13
2023-02-08T07:57:02.525Z,103618.88
2023-02-08T07:59:30.255Z,103528.41
2023-02-08T08:01:56.864Z,103608.88
2023-02-08T08:04:23.545Z,103620.16
2023-02-08T08:06:51.445Z,103619.84
2023-02-08T08:09:18.043Z,103499.53
2023-02-08T08:11:44.606Z,103613.38
2023-02-08T08:14:11.187Z,103626.59
2023-02-08T08:16:37.804Z,103601.34
2023-02-08T08:19:04.449Z,103507.69
2023-02-08T08:21:30.973Z,103488.69
2023-02-08T08:23:57.490Z,103514.41
2023-02-08T08:26:24.022Z,103598.06
2023-02-08T08:28:50.638Z,103604.69
2023-02-08T08:31:20.114Z,103604.75
2023-02-08T08:33:47.105Z,103599.59
2023-02-08T08:36:14.069Z,103549.50
2023-02-08T08:38:41.078Z,103485.41
2023-02-08T08:41:14.600Z,103593.56
2023-02-08T08:43:41.293Z,103621.63
2023-02-08T08:46:08.498Z,103581.13
2023-02-08T08:48:36.079Z,103581.66
2023-02-08T08:51:03.084Z,103581.41
2023-02-08T08:53:29.705Z,103509.88
2023-02-08T08:55:56.265Z,103502.53
2023-02-08T08:58:22.958Z,103538.63
2023-02-08T09:00:50.070Z,103600.69
2023-02-08T09:03:16.786Z,103567.91
2023-02-08T09:05:43.350Z,103588.81
2023-02-08T09:08:09.968Z,103573.81
2023-02-08T09:10:36.516Z,103554.91
2023-02-08T09:13:03.344Z,103558.97
2023-02-08T09:15:30.065Z,103568.09
2023-02-08T09:17:56.767Z,103562.16
2023-02-08T09:20:23.966Z,103582.56
2023-02-08T09:22:50.821Z,103488.09
2023-02-08T09:25:17.573Z,103596.69
2023-02-08T09:27:44.146Z,103517.09
2023-02-08T09:30:11.165Z,103581.31
2023-02-08T09:32:39.778Z,103601.50
2023-02-08T09:35:08.321Z,103592.94
2023-02-08T09:37:35.308Z,103586.69
2023-02-08T09:40:02.099Z,103570.63
2023-02-08T09:42:40.762Z,103563.13
2023-02-08T09:45:51.119Z,103593.19
2023-02-08T09:48:36.042Z,103590.25
2023-02-08T09:51:38.384Z,103598.63
2023-02-08T09:54:22.827Z,103584.13
2023-02-08T09:56:50.565Z,103554.00
2023-02-08T09:59:23.075Z,103509.31
2023-02-08T10:01:53.719Z,103557.69
2023-02-08T10:04:32.391Z,103609.47
2023-02-08T10:06:59.026Z,103593.09
2023-02-08T10:09:27.184Z,103521.63
2023-02-08T10:12:25.987Z,103620.88
2023-02-08T10:15:06.134Z,103623.00
2023-02-08T10:17:51.110Z,103631.59
2023-02-08T10:20:40.891Z,103622.47
2023-02-08T10:23:33.756Z,103608.22
2023-02-08T10:26:00.286Z,103612.69
2023-02-08T10:29:28.487Z,103559.97
2023-02-08T10:32:07.030Z,103576.81
2023-02-08T10:34:42.640Z,103621.94
2023-02-08T10:37:19.941Z,103514.09
2023-02-08T10:39:49.274Z,103593.78
2023-02-08T10:42:18.978Z,103596.22
2023-02-08T10:45:22.777Z,103527.38
2023-02-08T10:47:56.634Z,103571.09
2023-02-08T10:50:34.041Z,103587.88
2023-02-08T10:53:00.765Z,103576.34
2023-02-08T10:55:27.513Z,103578.50
2023-02-08T10:57:59.634Z,103585.13
2023-02-08T11:00:33.360Z,103548.91
2023-02-08T11:03:12.752Z,103505.94
2023-02-08T11:05:41.084Z,103573.09
2023-02-08T11:08:17.604Z,103583.91
2023-02-08T11:10:56.339Z,103514.78
2023-02-08T11:13:26.721Z,103495.41
2023-02-08T11:16:00.050Z,103584.56
2023-02-08T11:18:31.996Z,103533.72
2023-02-08T11:21:01.957Z,103531.53
2023-02-08T11:23:34.714Z,103484.88
2023-02-08T11:26:20.941Z,103485.97
2023-02-08T11:28:59.521Z,103566.66
2023-02-08T11:31:26.306Z,103531.56
2023-02-08T11:34:10.496Z,103535.03
2023-02-08T11:36:44.459Z,103552.75
2023-02-08T11:39:27.765Z,103513.84
2023-02-08T11:41:58.725Z,103546.44
2023-02-08T11:44:37.303Z,103470.34
2023-02-08T11:47:08.931Z,103525.75
2023-02-08T11:49:41.763Z,103510.22
2023-02-08T11:52:21.376Z,103507.13
2023-02-08T11:54:48.575Z,103441.22
2023-02-08T11:57:32.604Z,103499.28
2023-02-08T12:00:26.458Z,103473.22
2023-02-08T12:03:03.933Z,103491.31
2023-02-08T12:06:01.786Z,103512.56
2023-02-08T12:08:41.467Z,103508.53
2023-02-08T12:11:28.885Z,103507.41
2023-02-08T12:14:14.068Z,103505.25
2023-02-08T12:16:54.436Z,103503.09
2023-02-08T12:19:27.013Z,103510.97
2023-02-08T12:21:59.275Z,103493.53
2023-02-08T12:25:01.116Z,103471.22
2023-02-08T12:27:42.881Z,103488.78
2023-02-08T12:30:27.214Z,103401.06
2023-02-08T12:33:18.546Z,103476.03
2023-02-08T12:36:15.229Z,103475.44
2023-02-08T12:39:17.072Z,103473.94
2023-02-08T12:42:04.742Z,103486.16
2023-02-08T12:44:48.465Z,103461.59
2023-02-08T12:47:20.951Z,103495.38
2023-02-08T12:50:32.495Z,103472.22
2023-02-08T12:53:21.838Z,103456.06
2023-02-08T12:55:51.110Z,103350.09
2023-02-08T12:58:47.060Z,103447.09
2023-02-08T13:01:24.446Z,103395.75
2023-02-08T13:04:09.076Z,103431.88
2023-02-08T13:06:47.067Z,103363.09
2023-02-08T13:09:35.835Z,103412.84
2023-02-08T13:12:12.768Z,103401.56
2023-02-08T13:14:47.526Z,103414.47
2023-02-08T13:17:23.749Z,103387.97
2023-02-08T13:20:23.217Z,103397.94
2023-02-08T13:22:52.884Z,103341.34
2023-02-08T13:25:31.408Z,103366.38
2023-02-08T13:28:06.840Z,103306.31
2023-02-08T13:30:39.891Z,103402.31
2023-02-08T13:33:20.790Z,103321.97
2023-02-08T13:35:52.966Z,103375.81
2023-02-08T13:38:32.651Z,103380.66
2023-02-08T13:41:21.121Z,103355.03
2023-02-08T13:43:56.419Z,103370.31
2023-02-08T13:46:25.968Z,103375.13
2023-02-08T13:48:59.982Z,103367.63
2023-02-08T13:51:32.755Z,103374.31
2023-02-08T13:54:02.417Z,103284.44
2023-02-08T13:56:49.731Z,103379.53
2023-02-08T13:59:37.434Z,103296.97
2023-02-08T14:02:14.431Z,103372.47
2023-02-08T14:04:43.375Z,103282.03
2023-02-08T14:07:09.839Z,103367.69
2023-02-08T14:09:47.939Z,103330.97
2023-02-08T14:12:36.233Z,103364.00
2023-02-08T14:15:15.137Z,103357.25
2023-02-08T14:17:47.324Z,103345.28
2023-02-08T14:20:32.268Z,103355.66
2023-02-08T14:23:03.196Z,103268.69
2023-02-08T14:25:46.964Z,103256.50
2023-02-08T14:28:40.239Z,103338.84
2023-02-08T14:31:10.078Z,103326.28
2023-02-08T14:33:42.747Z,103247.03
2023-02-08T14:36:25.902Z,103345.50
2023-02-08T14:39:24.337Z,103328.47
2023-02-08T14:42:00.112Z,103186.47
2023-02-08T14:44:38.865Z,103332.16
2023-02-08T14:47:29.084Z,103328.44
2023-02-08T14:50:10.843Z,103323.31
2023-02-08T14:52:39.245Z,103209.34
2023-02-08T14:55:26.570Z,103231.63
2023-02-08T14:58:00.649Z,103300.44
2023-02-08T15:00:33.164Z,103280.44
2023-02-08T15:03:00.912Z,103236.81
2023-02-08T15:05:37.657Z,103287.88
2023-02-08T15:08:05.205Z,103302.91
2023-02-08T15:10:33.162Z,103248.53
2023-02-08T15:13:06.237Z,103221.13
2023-02-08T15:15:36.647Z,103269.78
2023-02-08T15:18:05.829Z,103288.56
2023-02-08T15:20:35.468Z,103206.00
2023-02-08T15:23:18.023Z,103204.72
2023-02-08T15:25:53.548Z,103271.97
2023-02-08T15:28:22.633Z,103274.69
2023-02-08T15:30:58.206Z,103282.94
2023-02-08T15:33:25.527Z,103271.41
2023-02-08T15:35:57.500Z,103232.84
2023-02-08T15:38:24.493Z,103226.66
2023-02-08T15:41:12.108Z,103086.06
2023-02-08T15:43:40.204Z,103231.91
2023-02-08T15:46:20.208Z,103241.75
2023-02-08T15:48:48.704Z,103232.09
2023-02-08T15:51:16.114Z,103120.16
2023-02-08T15:53:45.664Z,103258.06
2023-02-08T15:56:35.367Z,103210.84
2023-02-08T15:59:07.341Z,103228.84
2023-02-08T16:01:34.428Z,103132.75
2023-02-08T16:04:12.278Z,103248.22
2023-02-08T16:06:45.825Z,103142.88
2023-02-08T16:09:20.512Z,103227.69
2023-02-08T16:11:50.012Z,103226.47
2023-02-08T16:14:19.554Z,103239.66
2023-02-08T16:16:53.393Z,103204.16
2023-02-08T16:19:23.103Z,103131.91
2023-02-08T16:21:50.333Z,103182.56
2023-02-08T16:24:16.930Z,103239.03
2023-02-08T16:26:47.476Z,103212.94
2023-02-08T16:29:29.772Z,103163.84
2023-02-08T16:32:13.333Z,103231.13
2023-02-08T16:34:40.601Z,103122.13
2023-02-08T16:37:22.859Z,103187.13
2023-02-08T16:39:59.350Z,103222.56
2023-02-08T16:42:33.931Z,103185.69
2023-02-08T16:45:16.736Z,103195.78
2023-02-08T16:47:51.223Z,103219.81
2023-02-08T16:50:26.904Z,103150.91
2023-02-08T16:52:56.437Z,103217.00
2023-02-08T16:55:27.066Z,103216.56
2023-02-08T16:57:56.502Z,103166.88
2023-02-08T17:00:27.807Z,103071.59
2023-02-08T17:02:55.165Z,103191.34
2023-02-08T17:05:24.027Z,103126.94
2023-02-08T17:07:51.220Z,103100.50
2023-02-08T17:10:32.181Z,103216.84
2023-02-08T17:13:17.524Z,103196.94
2023-02-08T17:15:47.480Z,103161.69
2023-02-08T17:18:14.445Z,103102.47
2023-02-08T17:20:41.469Z,103128.53
2023-02-08T17:23:08.090Z,103167.19
2023-02-08T17:25:35.724Z,103051.78
2023-02-08T17:28:05.491Z,103141.34
2023-02-08T17:30:36.006Z,103070.09
2023-02-08T17:33:03.967Z,103056.06
2023-02-08T17:35:30.957Z,103105.03
2023-02-08T17:37:58.410Z,103166.75
2023-02-08T17:40:32.484Z,103189.53
2023-02-08T17:43:03.337Z,103163.22
2023-02-08T17:45:30.370Z,103053.56
2023-02-08T17:48:00.014Z,103134.25
2023-02-08T17:50:27.050Z,103063.09
2023-02-08T17:52:54.114Z,103165.97
2023-02-08T17:55:21.002Z,103145.25
2023-02-08T17:57:48.068Z,103176.69
2023-02-08T18:00:20.821Z,103043.22
2023-02-08T18:02:50.215Z,103179.59
2023-02-08T18:05:25.501Z,103147.50
2023-02-08T18:07:54.673Z,102977.03
2023-02-08T18:10:22.680Z,103139.09
2023-02-08T18:12:49.448Z,103172.25
2023-02-08T18:15:20.679Z,103158.34
2023-02-08T18:17:48.452Z,103035.72
2023-02-08T18:20:15.932Z,103042.78
2023-02-08T18:22:43.187Z,103129.31
2023-02-08T18:25:11.048Z,103047.06
2023-02-08T18:27:38.046Z,103136.50
2023-02-08T18:30:05.271Z,103104.72
2023-02-08T18:32:31.820Z,103156.72
2023-02-08T18:34:58.662Z,103128.41
2023-02-08T18:37:25.480Z,103100.50
2023-02-08T18:39:52.245Z,102988.47
2023-02-08T18:42:18.936Z,103123.03
2023-02-08T18:44:45.758Z,103091.31
2023-02-08T18:47:12.484Z,103089.59
2023-02-08T18:49:40.664Z,103118.13
2023-02-08T18:52:09.382Z,103131.22
2023-02-08T18:54:38.337Z,103020.59
2023-02-08T18:57:06.229Z,103013.78
2023-02-08T18:59:33.446Z,103108.53
2023-02-08T19:02:01.620Z,103111.44
2023-02-08T19:04:28.966Z,103131.63
2023-02-08T19:06:55.496Z,103125.84
2023-02-08T19:09:21.993Z,103128.31
2023-02-08T19:11:48.885Z,103104.47
2023-02-08T19:14:15.876Z,102975.56
2023-02-08T19:16:43.148Z,103070.91
2023-02-08T19:19:10.100Z,102998.66
2023-02-08T19:21:36.811Z,103001.09
2023-02-08T19:24:03.554Z,103069.88
2023-02-08T19:26:33.387Z,103083.50
2023-02-08T19:29:03.250Z,103079.41
2023-02-08T19:31:30.825Z,103013.84
2023-02-08T19:33:59.716Z,102994.63
2023-02-08T19:36:30.328Z,103000.91
2023-02-08T19:38:57.874Z,103002.19
2023-02-08T19:41:28.253Z,103099.88
2023-02-08T19:43:55.014Z,102988.16
2023-02-08T19:46:23.968Z,102994.31
2023-02-08T19:48:52.159Z,102995.81
2023-02-08T19:51:19.393Z,103079.63
2023-02-08T19:53:46.704Z,103086.53
2023-02-08T19:56:15.792Z,103086.28
2023-02-08T19:58:42.646Z,103060.41
2023-02-08T20:01:19.527Z,103109.53
2023-02-08T20:03:47.546Z,103042.91
2023-02-08T20:06:15.447Z,103082.97
2023-02-08T20:08:42.151Z,103069.44
2023-02-08T20:11:19.868Z,103117.06
2023-02-08T20:13:47.161Z,103054.50
2023-02-08T20:16:14.442Z,103119.94
2023-02-08T20:18:41.152Z,103085.31
2023-02-08T20:21:08.527Z,103117.72
2023-02-08T20:23:36.094Z,103121.06
2023-02-08T20:26:10.633Z,103126.50
2023-02-08T20:28:41.444Z,103129.97
2023-02-08T20:31:14.165Z,103111.19
2023-02-08T20:33:41.209Z,103103.16
2023-02-08T20:36:16.170Z,103109.28
2023-02-08T20:38:43.073Z,102998.63
2023-02-08T20:41:14.584Z,103117.31
2023-02-08T20:43:42.802Z,103025.97
2023-02-08T20:46:14.395Z,102931.84
2023-02-08T20:48:41.063Z,103015.38
2023-02-08T20:51:10.537Z,103022.16
2023-02-08T20:53:38.896Z,103142.47
2023-02-08T20:56:07.282Z,103082.00
2023-02-08T20:58:34.113Z,103019.56
2023-02-08T21:01:01.206Z,103136.16
2023-02-08T21:03:27.869Z,103095.59
2023-02-08T21:05:54.495Z,103112.75
2023-02-08T21:08:21.071Z,103107.03
2023-02-08T21:10:47.615Z,103002.50
2023-02-08T21:13:14.184Z,102978.44
2023-02-08T21:15:44.095Z,103012.84
2023-02-08T21:18:12.537Z,102992.25
2023-02-08T21:20:40.291Z,103086.41
2023-02-08T21:23:07.502Z,103100.81
2023-02-08T21:25:34.100Z,103006.53
2023-02-08T21:28:00.881Z,102977.47
2023-02-08T21:30:27.606Z,103096.72
2023-02-08T21:32:54.253Z,103082.03
2023-02-08T21:35:20.870Z,103004.00
2023-02-08T21:37:47.541Z,103060.56
2023-02-08T21:40:14.301Z,103079.13
2023-02-08T21:42:40.935Z,103095.72
2023-02-08T21:45:09.715Z,103064.25
2023-02-08T21:47:36.887Z,103070.31
2023-02-08T21:50:22.776Z,103052.41
2023-02-08T21:53:07.785Z,103039.00
2023-02-08T21:55:34.321Z,103068.84
2023-02-08T21:58:00.995Z,103041.81
2023-02-08T22:00:27.556Z,103070.41
2023-02-08T22:02:54.103Z,103052.81
2023-02-08T22:05:39.030Z,103003.66
2023-02-08T22:08:05.638Z,103075.53
2023-02-08T22:10:33.326Z,103066.00
2023-02-08T22:13:00.212Z,103077.75
2023-02-08T22:15:30.089Z,102990.06
2023-02-08T22:17:59.106Z,103066.78
2023-02-08T22:20:26.793Z,103083.28
2023-02-08T22:22:55.311Z,103070.97
2023-02-08T22:25:23.049Z,103075.13
2023-02-08T22:27:49.786Z,102983.84
2023-02-08T22:30:18.455Z,103088.38
2023-02-08T22:32:47.931Z,103004.56
2023-02-08T22:35:16.371Z,103051.81
2023-02-08T22:37:43.397Z,102964.84
2023-02-08T22:40:11.833Z,103064.28
2023-02-08T22:42:39.790Z,103056.97
2023-02-08T22:45:06.649Z,103058.72
2023-02-08T22:47:34.243Z,102977.53
2023-02-08T22:50:01.428Z,103072.03
2023-02-08T22:52:28.269Z,103057.81
2023-02-08T22:54:56.023Z,103064.84
2023-02-08T22:57:22.616Z,103044.34
2023-02-08T22:59:49.295Z,103037.91
2023-02-08T23:02:18.768Z,103075.75
2023-02-08T23:04:45.370Z,103030.31
2023-02-08T23:07:11.920Z,102969.56
2023-02-08T23:09:38.843Z,102942.22
2023-02-08T23:12:05.676Z,103049.59
2023-02-08T23:14:32.879Z,103046.25
2023-02-08T23:16:59.884Z,103039.66
2023-02-08T23:19:27.034Z,103041.63
2023-02-08T23:21:53.842Z,103044.22
2023-02-08T23:24:20.472Z,103034.00
2023-02-08T23:26:47.764Z,103058.66
2023-02-08T23:29:14.593Z,103036.31
2023-02-08T23:31:41.398Z,103026.53
2023-02-08T23:34:08.292Z,102986.56
2023-02-08T23:36:34.826Z,102937.63
2023-02-08T23:39:01.540Z,103001.53
2023-02-08T23:41:29.297Z,103018.22
2023-02-08T23:43:55.910Z,103019.94
2023-02-08T23:46:25.992Z,103033.53
2023-02-08T23:48:53.081Z,103019.59
2023-02-08T23:51:22.922Z,102933.81
2023-02-08T23:53:50.688Z,103059.72
2023-02-08T23:56:29.541Z,102898.81
2023-02-08T23:58:57.958Z,102983.25
